NATURA VA

 METAR AND TAF INFORMATION
METAR FOR LEGE
ADDS - METARS form results

(1605 UTC 26 March 2019)
Data provider http://aviationweather.gov/metar/data/
 
METAR text: LEGE 261600Z 04027KT CAVOK 17/M10 Q1019
Conditions at: LEGE (GERONA/COSTA BRA, ES) observed 1600 UTC 26 March 2019
Temperature: 17.0°C (63°F)
Dewpoint: -10.0°C (14°F) [RH = 15%]
Pressure (altimeter): 30.09 inches Hg (1019.0 mb)
Winds: from the NE (40 degrees) at 31 MPH (27 knots; 13.9 m/s)
Visibility: 6 or more miles (10+ km)
Ceiling: ceiling and visibility are OK
Clouds: unknown
Weather: no significant weather observed at this time

METAR text: LEGE 261530Z 04023KT CAVOK 17/M09 Q1019
Conditions at: LEGE (GERONA/COSTA BRA, ES) observed 1530 UTC 26 March 2019
Temperature: 17.0°C (63°F)
Dewpoint: -9.0°C (16°F) [RH = 16%]
Pressure (altimeter): 30.09 inches Hg (1019.0 mb)
Winds: from the NE (40 degrees) at 26 MPH (23 knots; 11.8 m/s)
Visibility: 6 or more miles (10+ km)
Ceiling: ceiling and visibility are OK
Clouds: unknown
Weather: no significant weather observed at this time

Forecast for: LEGE (GERONA/COSTA BRA, ES)
Text: TAF LEGE 261100Z 2612/2712 01018KT CAVOK TX21/2614Z TN08/2706Z
Forecast period: 1200 to 1800 UTC 26 March 2019
Forecast type: FROM: standard forecast or significant change
Winds: from the N (10 degrees) at 21 MPH (18 knots; 9.3 m/s)
Visibility: 6 or more miles 10+ km)
Ceiling: unknown
Clouds: missing
Weather: no significant weather forecast for this period
Text: TEMPO 2612/2618 01020G35KT
Forecast period: 1200 to 1800 UTC 26 March 2019
Forecast type: TEMPORARY: The following changes expected for less than half the time period
Winds: from the N (10 degrees) at 23 MPH (20 knots; 10.3 m/s)
gusting to 40 MPH (35 knots; 18.0 m/s)
Visibility: missing
Ceiling: unknown
Clouds: missing
Weather: no significant weather forecast for this period
Text: BECMG 2618/2620 36008KT
Forecast period: 1800 UTC 26 March 2019 to 1200 UTC 27 March 2019
Forecast type: BECOMING: Conditions expected to become as follows by 2000 UTC 26 March 2019
Winds: from the N (360 degrees) at 9 MPH (8 knots; 4.1 m/s)
Visibility: 6 or more miles 10+ km)
Ceiling: unknown
Clouds: missing
Weather: no significant weather forecast for this period

 AIRPORT MAP

 RUNWAY INFORMATION
Runway 02 Runway length 7874 ft Runway width 148 ft
Runway elevation 403 ft Runway displaced threshold 0 ft Runway heading 16
Runway 20 Runway length 7874 ft Runway width 148 ft
Runway elevation 468 ft Runway displaced threshold 0 ft Runway heading 196

 AIRPORT FREQUENCIES
Type APP Name APP Frequency 120.9 MHZ
Type GND Name GND Frequency 121.7 MHZ
Type TWR Name TWR Frequency 118.5 MHZ

 AIRPORT NEAR NAVIGATION AIDS
Type VOR-DME Name Gerona Frequency 114100 KHZ
Type NDB Name Gerona Frequency 412 KHZ



Powered by Virtual Airlines Manager [v2.6.2]